Time;durP1;ratioP1;P1;durP2;ratioP2;P2;SDS_P1;SDS_P2;PMS_P1;PMS_P2;Temp;Humidity;BMP_temperature;BMP_pressure;BME280_temperature;BME280_humidity;BME280_pressure;Samples;Min_cycle;Max_cycle;Signal;HPM_P1;HPM_P2
2021/12/26 00:01:46;;;;;;;6.03;3.10;;;;;;;-3.68;76.89;100669.06;5278327;28;20028;-74
2021/12/26 00:04:17;;;;;;;6.63;3.20;;;;;;;-3.64;77.82;100671.75;5279203;28;20215;-74
2021/12/26 00:06:49;;;;;;;6.20;3.33;;;;;;;-3.66;76.78;100664.03;5278567;28;20162;-74
2021/12/26 00:09:20;;;;;;;6.05;3.45;;;;;;;-3.68;77.41;100658.88;5278691;28;20064;-75
2021/12/26 00:11:55;;;;;;;13.50;8.67;;;;;;;-3.72;77.53;100667.22;5278708;28;20036;-75
2021/12/26 00:14:26;;;;;;;5.70;3.35;;;;;;;-3.78;76.98;100663.50;5277349;28;20036;-74
2021/12/26 00:16:57;;;;;;;5.10;3.03;;;;;;;-3.76;77.76;100659.38;5278335;28;20028;-73
2021/12/26 00:19:29;;;;;;;9.60;5.70;;;;;;;-3.80;78.50;100658.38;5277672;28;20039;-74
2021/12/26 00:22:00;;;;;;;8.57;5.07;;;;;;;-3.87;79.19;100653.78;5277703;28;20073;-75
2021/12/26 00:24:31;;;;;;;6.20;3.43;;;;;;;-3.94;78.02;100646.72;5277756;28;20033;-74
2021/12/26 00:27:03;;;;;;;7.10;4.37;;;;;;;-3.95;77.99;100648.38;5277862;28;20060;-75
2021/12/26 00:29:34;;;;;;;6.13;3.63;;;;;;;-3.98;78.39;100647.38;5277433;28;20036;-73
2021/12/26 00:32:06;;;;;;;5.37;3.00;;;;;;;-4.03;78.45;100648.03;5277159;28;20048;-74
2021/12/26 00:34:38;;;;;;;6.80;3.97;;;;;;;-4.02;79.38;100638.72;5274272;28;20091;-73
2021/12/26 00:37:10;;;;;;;8.23;3.90;;;;;;;-4.08;78.97;100644.41;5263647;28;20044;-74
2021/12/26 00:39:41;;;;;;;7.95;4.03;;;;;;;-4.07;79.91;100643.63;5264467;28;20068;-74
2021/12/26 00:42:13;;;;;;;6.03;3.77;;;;;;;-4.15;79.45;100633.88;5265109;28;20060;-75
2021/12/26 00:44:44;;;;;;;8.27;3.90;;;;;;;-4.09;80.21;100639.25;5264326;28;20036;-74
2021/12/26 00:47:15;;;;;;;4.90;3.37;;;;;;;-4.10;80.22;100640.06;5264923;28;20035;-74
2021/12/26 00:49:47;;;;;;;7.40;3.83;;;;;;;-4.15;80.20;100632.22;5264284;28;20055;-74
2021/12/26 00:52:45;;;;;;;6.13;3.03;;;;;;;-4.18;80.20;100637.19;5266203;28;20037;-75
2021/12/26 00:55:17;;;;;;;7.72;3.17;;;;;;;-4.14;79.52;100646.69;5269886;28;20029;-74
2021/12/26 00:57:51;;;;;;;8.65;3.17;;;;;;;-4.12;80.21;100640.00;5267147;28;20166;-74
2021/12/26 01:00:31;;;;;;;7.55;3.50;;;;;;;-4.08;80.35;100643.53;5267219;28;20048;-74
2021/12/26 01:03:04;;;;;;;4.43;2.90;;;;;;;-3.98;79.92;100638.03;5268105;28;20032;-74
2021/12/26 01:05:37;;;;;;;5.90;3.40;;;;;;;-3.84;80.27;100641.19;5267500;28;20032;-74
2021/12/26 01:08:13;;;;;;;8.52;3.47;;;;;;;-3.70;80.08;100645.22;5264855;28;20031;-73
2021/12/26 01:10:52;;;;;;;5.60;3.20;;;;;;;-3.52;80.56;100641.69;5259277;28;20032;-75
2021/12/26 01:16:00;;;;;;;5.30;3.30;;;;;;;-3.34;78.58;100652.63;5256157;28;20488;-73
2021/12/26 01:18:37;;;;;;;5.82;3.17;;;;;;;-3.23;78.35;100649.69;5255765;28;20036;-74
2021/12/26 01:23:51;;;;;;;8.52;2.75;;;;;;;-3.17;76.86;100635.50;5255738;28;20036;-74
2021/12/26 01:26:23;;;;;;;5.38;3.00;;;;;;;-3.08;76.50;100636.66;5253808;28;20045;-75
2021/12/26 01:28:55;;;;;;;6.35;3.53;;;;;;;-3.03;76.68;100638.56;5255812;28;20068;-74
2021/12/26 01:31:26;;;;;;;5.50;3.17;;;;;;;-2.99;76.67;100640.47;5254876;28;20091;-74
2021/12/26 01:34:00;;;;;;;6.93;3.50;;;;;;;-2.94;77.07;100636.41;5254548;28;20037;-74
2021/12/26 01:36:33;;;;;;;6.65;3.70;;;;;;;-2.92;76.22;100628.81;5255796;28;20040;-73
2021/12/26 01:39:09;;;;;;;5.13;3.13;;;;;;;-2.93;75.77;100632.16;5255875;28;20037;-74
2021/12/26 01:41:42;;;;;;;6.88;3.30;;;;;;;-2.90;76.37;100629.72;5255413;28;20059;-74
2021/12/26 01:44:15;;;;;;;7.88;3.33;;;;;;;-2.86;76.38;100631.59;5255455;28;20053;-73
2021/12/26 01:46:48;;;;;;;6.32;3.65;;;;;;;-2.85;76.19;100625.72;5255518;28;20025;-74
2021/12/26 01:49:22;;;;;;;;;;;;;;;-2.77;76.98;100633.63;5255841;28;20108;-75
2021/12/26 01:51:57;;;;;;;7.50;3.80;;;;;;;-2.82;76.46;100628.38;5254949;28;19920;-74
2021/12/26 01:54:39;;;;;;;7.88;3.25;;;;;;;-2.79;75.88;100619.97;5255682;28;20071;-73
2021/12/26 01:57:15;;;;;;;5.45;3.28;;;;;;;-2.79;75.10;100625.06;5255467;28;20061;-74
2021/12/26 01:59:48;;;;;;;6.18;3.47;;;;;;;-2.76;75.58;100622.63;5255261;28;20025;-74
2021/12/26 02:02:21;;;;;;;6.55;3.17;;;;;;;-2.76;75.16;100626.03;5255337;28;20090;-74
2021/12/26 02:04:53;;;;;;;6.32;3.00;;;;;;;-2.71;75.60;100623.66;5254927;28;20485;-74
2021/12/26 02:07:24;;;;;;;5.00;3.10;;;;;;;-2.66;75.90;100626.41;5253997;28;20039;-74
2021/12/26 02:09:56;;;;;;;9.47;3.93;;;;;;;-2.62;76.36;100623.16;5255627;28;20755;-74
2021/12/26 02:12:27;;;;;;;6.20;3.40;;;;;;;-2.63;75.47;100622.28;5254988;28;20086;-74
2021/12/26 02:14:58;;;;;;;7.47;3.43;;;;;;;-2.61;75.56;100624.88;5255322;28;20021;-75
2021/12/26 02:17:30;;;;;;;5.60;3.40;;;;;;;-2.57;76.26;100622.50;5255436;28;20021;-74
2021/12/26 02:20:13;;;;;;;7.07;3.90;;;;;;;-2.52;75.80;100630.34;5255129;28;20492;-74
2021/12/26 02:22:50;;;;;;;8.35;3.88;;;;;;;-2.57;75.68;100630.16;5254747;28;20040;-73
2021/12/26 02:27:30;;;;;;;8.52;4.47;;;;;;;-2.51;75.73;100618.44;5255081;28;20416;-73
2021/12/26 02:28:20;;;;;;;8.27;3.88;;;;;;;-2.49;75.79;100617.69;5254870;28;20438;-73
2021/12/26 02:30:53;;;;;;;6.85;3.65;;;;;;;-2.51;75.43;100615.91;5254637;28;20174;-73
2021/12/26 02:33:25;;;;;;;6.05;3.53;;;;;;;-2.51;74.71;100614.22;5254649;28;20052;-73
2021/12/26 02:35:56;;;;;;;5.70;3.20;;;;;;;-2.53;74.67;100608.19;5254863;28;20025;-72
2021/12/26 02:38:27;;;;;;;7.77;4.30;;;;;;;-2.48;75.60;100608.34;5254670;28;20029;-73
2021/12/26 02:41:00;;;;;;;7.30;3.53;;;;;;;-2.44;76.09;100615.31;5255209;28;20021;-73
2021/12/26 02:43:33;;;;;;;6.38;3.20;;;;;;;-2.46;76.29;100599.94;5255571;28;20480;-73
2021/12/26 02:46:06;;;;;;;7.75;3.55;;;;;;;-2.48;75.01;100600.69;5264624;28;20120;-72
2021/12/26 02:48:39;;;;;;;8.05;3.70;;;;;;;-2.48;74.81;100599.03;5258697;28;20105;-72
2021/12/26 02:51:11;;;;;;;7.28;3.72;;;;;;;-2.50;74.21;100598.09;5258647;28;20033;-75
2021/12/26 02:53:42;;;;;;;6.07;3.50;;;;;;;-2.48;75.07;100605.81;5257931;28;20401;-74
2021/12/26 02:56:15;;;;;;;9.17;4.07;;;;;;;-2.45;74.90;100600.81;5258192;28;20072;-73
2021/12/26 02:58:46;;;;;;;7.38;4.22;;;;;;;-2.44;75.29;100610.22;5258149;28;20041;-73
2021/12/26 03:01:24;;;;;;;6.47;3.20;;;;;;;-2.44;75.88;100607.66;5258625;28;20029;-74
2021/12/26 03:03:55;;;;;;;8.25;4.35;;;;;;;-2.43;76.01;100602.63;5258191;28;20055;-74
2021/12/26 03:06:38;;;;;;;6.97;3.80;;;;;;;-2.49;74.98;100593.88;5258276;28;20107;-73
2021/12/26 03:09:10;;;;;;;7.95;3.47;;;;;;;-2.47;75.35;100603.31;5257737;28;20029;-72
2021/12/26 03:11:44;;;;;;;9.80;5.10;;;;;;;-2.44;76.14;100605.13;5258186;28;20039;-73
2021/12/26 03:14:15;;;;;;;7.70;4.20;;;;;;;-2.52;74.97;100599.72;5258052;28;20029;-74
2021/12/26 03:16:50;;;;;;;7.93;4.20;;;;;;;-2.54;74.44;100598.81;5258447;28;20029;-73
2021/12/26 03:19:21;;;;;;;7.32;3.60;;;;;;;-2.54;74.75;100591.16;5258034;28;20053;-73
2021/12/26 03:21:53;;;;;;;5.63;3.80;;;;;;;-2.54;75.58;100592.81;5257981;28;20096;-73
2021/12/26 03:24:24;;;;;;;9.27;4.30;;;;;;;-2.63;74.82;100584.00;5257651;28;20029;-74
2021/12/26 03:27:03;;;;;;;6.83;3.77;;;;;;;-2.79;75.39;100571.47;5290032;28;20033;-72
2021/12/26 03:29:35;;;;;;;6.93;3.60;;;;;;;-2.94;75.63;100570.09;5257843;28;20100;-72
2021/12/26 03:32:08;;;;;;;7.47;4.37;;;;;;;-3.07;76.15;100565.34;5257618;28;20051;-73
2021/12/26 03:34:49;;;;;;;4.97;3.33;;;;;;;-3.21;76.56;100574.97;5256372;28;20378;-73
2021/12/26 03:37:23;;;;;;;6.65;3.70;;;;;;;-3.35;76.41;100571.91;5257667;28;20105;-73
2021/12/26 03:39:55;;;;;;;6.55;3.55;;;;;;;-3.44;76.56;100584.28;5257287;28;20032;-73
2021/12/26 03:42:26;;;;;;;9.43;4.10;;;;;;;-3.47;77.71;100571.41;5257770;28;20056;-73
2021/12/26 03:44:58;;;;;;;6.37;3.57;;;;;;;-3.58;77.57;100581.16;5257514;28;20064;-76
2021/12/26 03:47:31;;;;;;;5.30;3.50;;;;;;;-3.66;77.42;100574.88;5257292;28;20380;-73
2021/12/26 03:50:06;;;;;;;6.93;3.50;;;;;;;-3.66;77.69;100579.97;5257648;28;20037;-74
2021/12/26 03:52:37;;;;;;;7.10;3.92;;;;;;;-3.71;77.64;100584.88;5257497;28;20378;-73
2021/12/26 03:55:09;;;;;;;6.50;3.73;;;;;;;-3.78;78.08;100584.53;5256359;28;20032;-74
2021/12/26 03:57:40;;;;;;;9.83;4.07;;;;;;;-3.80;78.41;100579.41;5257150;28;20539;-73
2021/12/26 04:00:14;;;;;;;7.93;4.10;;;;;;;-3.85;78.21;100575.78;5257336;28;20029;-73
2021/12/26 04:02:46;;;;;;;10.43;4.20;;;;;;;-3.88;79.12;100573.09;5257151;28;20028;-73
2021/12/26 04:05:18;;;;;;;6.60;3.93;;;;;;;-3.93;79.24;100577.13;5257067;28;20032;-74
2021/12/26 04:07:49;;;;;;;6.32;4.00;;;;;;;-3.96;79.95;100580.44;5256415;28;20071;-74
2021/12/26 04:10:22;;;;;;;6.33;3.80;;;;;;;-4.01;80.18;100570.84;5256210;28;20035;-73
2021/12/26 04:12:55;;;;;;;9.63;3.97;;;;;;;-4.02;80.45;100572.53;5256946;28;20423;-73
2021/12/26 04:15:27;;;;;;;10.80;4.50;;;;;;;-4.05;80.83;100570.72;5256715;28;20025;-74
2021/12/26 04:18:00;;;;;;;5.80;4.10;;;;;;;-4.08;81.42;100573.13;5256810;28;20029;-73
2021/12/26 04:20:31;;;;;;;6.28;3.70;;;;;;;-4.14;80.77;100572.00;5256291;28;20039;-73
2021/12/26 04:23:03;;;;;;;6.27;4.07;;;;;;;-4.17;80.07;100570.22;5256937;28;20492;-72
2021/12/26 04:25:34;;;;;;;7.00;4.40;;;;;;;-4.19;80.39;100570.94;5256388;28;20120;-73
2021/12/26 04:28:05;;;;;;;6.10;3.33;;;;;;;-4.22;80.09;100571.66;5256977;28;20100;-73
2021/12/26 04:30:37;;;;;;;6.97;3.80;;;;;;;-4.23;80.13;100563.16;5256832;28;20052;-72
2021/12/26 04:33:09;;;;;;;6.05;3.58;;;;;;;-4.27;80.42;100573.13;5255487;28;20108;-73
2021/12/26 04:35:41;;;;;;;6.67;3.70;;;;;;;-4.30;80.35;100570.44;5256430;28;20131;-74
2021/12/26 04:38:12;;;;;;;6.97;3.90;;;;;;;-4.29;80.83;100569.66;5256673;28;20542;-73
2021/12/26 04:40:44;;;;;;;8.47;3.53;;;;;;;-4.31;81.15;100571.28;5256173;28;20544;-73
2021/12/26 04:43:19;;;;;;;7.07;3.73;;;;;;;-4.33;80.85;100563.56;5256658;28;20033;-73
2021/12/26 04:45:51;;;;;;;7.97;3.63;;;;;;;-4.36;80.90;100563.44;5254953;28;20104;-73
2021/12/26 04:48:22;;;;;;;13.43;4.33;;;;;;;-4.37;81.00;100561.69;5256191;28;20056;-73
2021/12/26 04:50:54;;;;;;;6.10;3.77;;;;;;;-4.41;81.46;100553.06;5255997;28;20025;-73
2021/12/26 04:53:25;;;;;;;6.60;4.20;;;;;;;-4.45;81.44;100552.84;5256442;28;20158;-73
2021/12/26 04:55:57;;;;;;;6.43;3.63;;;;;;;-4.45;81.71;100552.84;5255939;28;20107;-73
2021/12/26 04:58:28;;;;;;;7.70;4.10;;;;;;;-4.45;81.12;100548.63;5255721;28;20032;-72
2021/12/26 05:01:00;;;;;;;7.37;4.50;;;;;;;-4.47;81.55;100562.09;5257346;28;20053;-72
2021/12/26 05:03:32;;;;;;;11.00;5.00;;;;;;;-4.51;81.46;100548.34;5256960;28;20029;-73
2021/12/26 05:06:03;;;;;;;6.67;3.97;;;;;;;-4.49;82.50;100556.94;5255486;28;20036;-73
2021/12/26 05:08:35;;;;;;;7.90;4.43;;;;;;;-4.57;82.10;100553.19;5256778;28;20500;-73
2021/12/26 05:11:06;;;;;;;6.67;3.93;;;;;;;-4.56;83.04;100551.50;5256389;28;20116;-74
2021/12/26 05:13:37;;;;;;;6.63;4.30;;;;;;;-4.58;83.51;100546.34;5255839;28;20025;-72
2021/12/26 05:16:09;;;;;;;6.87;3.93;;;;;;;-4.57;83.73;100543.00;5257693;28;20021;-73
2021/12/26 05:18:40;;;;;;;6.53;4.43;;;;;;;-4.62;83.66;100544.47;5257163;28;20029;-73
2021/12/26 05:21:11;;;;;;;8.80;4.87;;;;;;;-4.64;83.56;100544.38;5255906;28;20017;-74
2021/12/26 05:23:43;;;;;;;6.67;4.07;;;;;;;-4.65;83.37;100550.28;5255813;28;20025;-72
2021/12/26 05:26:14;;;;;;;7.53;4.03;;;;;;;-4.68;83.88;100539.97;5254519;28;20427;-73
2021/12/26 05:28:45;;;;;;;9.90;4.90;;;;;;;-4.71;83.83;100547.47;5255626;28;20036;-74
2021/12/26 05:31:17;;;;;;;7.73;4.10;;;;;;;-4.73;83.78;100538.91;5256176;28;20057;-73
2021/12/26 05:33:50;;;;;;;16.30;4.53;;;;;;;-4.72;83.73;100539.78;5256320;28;20391;-73
2021/12/26 05:36:21;;;;;;;5.70;3.78;;;;;;;-4.74;83.44;100536.31;5255874;28;20491;-72
2021/12/26 05:38:53;;;;;;;6.50;3.77;;;;;;;-4.79;83.62;100526.78;5255884;28;20044;-73
2021/12/26 05:41:24;;;;;;;7.10;3.73;;;;;;;-4.78;83.20;100525.13;5255549;28;20029;-73
2021/12/26 05:43:55;;;;;;;6.90;4.00;;;;;;;-4.80;83.05;100527.59;5253883;28;20033;-73
2021/12/26 05:46:28;;;;;;;8.93;4.13;;;;;;;-4.81;83.65;100523.31;5254695;28;20381;-72
2021/12/26 05:49:00;;;;;;;7.40;4.25;;;;;;;-4.80;83.08;100524.16;5255094;28;20048;-73
2021/12/26 05:51:32;;;;;;;7.30;4.40;;;;;;;-4.82;83.28;100519.00;5255356;28;20037;-74
2021/12/26 05:54:03;;;;;;;8.80;4.83;;;;;;;-4.83;83.13;100519.84;5255240;28;20033;-73
2021/12/26 05:56:35;;;;;;;7.67;4.43;;;;;;;-4.83;83.70;100517.28;5255592;28;20099;-74
2021/12/26 05:59:06;;;;;;;8.47;4.00;;;;;;;-4.84;83.90;100518.06;5254841;28;20065;-73
2021/12/26 06:01:37;;;;;;;8.90;4.63;;;;;;;-4.84;83.82;100517.22;5255059;28;20029;-73
2021/12/26 06:04:09;;;;;;;7.97;4.57;;;;;;;-4.87;84.40;100515.41;5255095;28;20032;-74
2021/12/26 06:06:46;;;;;;;8.93;4.63;;;;;;;-4.87;83.84;100506.91;5255401;28;20033;-73
2021/12/26 06:09:17;;;;;;;6.82;4.20;;;;;;;-4.89;84.23;100509.38;5254661;28;20025;-73
2021/12/26 06:11:48;;;;;;;7.17;4.27;;;;;;;-4.92;84.15;100514.31;5254472;28;20029;-73
2021/12/26 06:14:20;;;;;;;8.30;4.20;;;;;;;-4.92;83.93;100511.78;5254631;28;20582;-74
2021/12/26 06:16:51;;;;;;;8.53;5.10;;;;;;;-4.92;84.06;100508.38;5255208;28;20017;-73
2021/12/26 06:19:23;;;;;;;9.10;4.50;;;;;;;-4.91;84.73;100505.00;5257218;28;20163;-72
2021/12/26 06:21:54;;;;;;;7.47;3.93;;;;;;;-4.95;84.51;100504.00;5258817;28;20128;-72
2021/12/26 06:24:27;;;;;;;7.13;4.83;;;;;;;-4.98;84.25;100503.88;5258175;28;20055;-74
2021/12/26 06:26:58;;;;;;;7.50;4.30;;;;;;;-4.98;84.46;100508.97;5259501;28;20029;-74
2021/12/26 06:29:29;;;;;;;7.97;4.40;;;;;;;-5.00;84.29;100511.44;5257688;28;20029;-72
2021/12/26 06:32:01;;;;;;;9.67;5.87;;;;;;;-4.97;84.92;100509.03;5258745;28;20411;-72
2021/12/26 06:34:32;;;;;;;15.77;8.83;;;;;;;-5.00;84.98;100511.44;5293206;28;20120;-73
2021/12/26 06:37:04;;;;;;;27.13;16.37;;;;;;;-5.03;85.53;100513.81;5259020;28;20091;-73
2021/12/26 06:39:35;;;;;;;13.23;7.93;;;;;;;-5.02;85.31;100518.13;5259079;28;20040;-73
2021/12/26 06:42:07;;;;;;;9.67;6.30;;;;;;;-5.03;85.28;100518.06;5259027;28;20040;-74
2021/12/26 06:44:38;;;;;;;11.73;7.23;;;;;;;-5.04;84.57;100523.91;5258810;28;20039;-74
2021/12/26 06:47:10;;;;;;;25.73;16.40;;;;;;;-5.04;84.62;100529.91;5256997;28;20036;-74
2021/12/26 06:49:42;;;;;;;16.57;8.43;;;;;;;-5.05;85.00;100520.53;5258467;28;20244;-73
2021/12/26 06:52:13;;;;;;;7.78;4.45;;;;;;;-5.05;84.78;100523.06;5258789;28;20029;-73
2021/12/26 06:54:45;;;;;;;10.20;4.97;;;;;;;-5.02;84.57;100522.34;5258931;28;20419;-74
2021/12/26 06:57:17;;;;;;;8.73;5.07;;;;;;;-5.04;84.73;100519.72;5258462;28;20123;-73
2021/12/26 06:59:48;;;;;;;12.03;5.40;;;;;;;-5.03;84.91;100521.44;5258544;28;20123;-75
2021/12/26 07:02:20;;;;;;;68.23;33.30;;;;;;;-4.99;85.32;100518.25;5257790;28;20033;-74
2021/12/26 07:04:51;;;;;;;9.83;6.57;;;;;;;-5.00;85.36;100513.09;5258029;28;20098;-74
2021/12/26 07:07:23;;;;;;;35.17;20.17;;;;;;;-4.99;85.76;100513.19;5258125;28;20037;-73
2021/12/26 07:09:54;;;;;;;9.57;5.77;;;;;;;-4.98;85.42;100509.81;5258200;28;20021;-73
2021/12/26 07:12:26;;;;;;;7.30;5.60;;;;;;;-4.98;85.39;100509.81;5265555;28;20037;-73
2021/12/26 07:14:57;;;;;;;12.57;7.33;;;;;;;-4.96;85.37;100515.88;5277245;28;20033;-73
2021/12/26 07:17:28;;;;;;;8.37;5.40;;;;;;;-4.93;85.40;100519.34;5277406;28;20029;-73
2021/12/26 07:20:00;;;;;;;7.17;4.77;;;;;;;-4.95;85.19;100519.25;5278847;28;20085;-73
2021/12/26 07:22:32;;;;;;;9.33;5.70;;;;;;;-4.88;85.67;100521.28;5278714;28;20476;-73
2021/12/26 07:25:05;;;;;;;8.20;5.57;;;;;;;-4.90;86.07;100517.81;5278491;28;20040;-73
2021/12/26 07:27:36;;;;;;;7.15;4.32;;;;;;;-4.90;85.67;100515.25;5278481;28;20032;-73
2021/12/26 07:30:09;;;;;;;11.83;8.60;;;;;;;-4.88;85.72;100513.63;5277678;28;20150;-73
2021/12/26 07:32:41;;;;;;;9.20;5.65;;;;;;;-4.89;85.75;100509.38;5278399;28;20127;-74
2021/12/26 07:35:12;;;;;;;11.77;7.00;;;;;;;-4.89;85.58;100513.56;5278594;28;20111;-74
2021/12/26 07:37:45;;;;;;;12.90;6.63;;;;;;;-4.88;85.84;100510.25;5278247;28;20052;-73
2021/12/26 07:40:16;;;;;;;8.10;5.43;;;;;;;-4.90;86.13;100506.78;5277649;28;20028;-74
2021/12/26 07:42:48;;;;;;;8.77;5.00;;;;;;;-4.94;85.81;100508.31;5277796;28;20056;-75
2021/12/26 07:45:19;;;;;;;7.23;4.87;;;;;;;-4.93;85.51;100512.56;5274582;28;20016;-75
2021/12/26 07:47:52;;;;;;;7.43;5.30;;;;;;;-4.92;86.21;100513.47;5277311;28;20395;-74
2021/12/26 07:50:26;;;;;;;8.43;5.10;;;;;;;-4.95;86.23;100512.50;5277717;28;20392;-75
2021/12/26 07:53:06;;;;;;;9.50;5.20;;;;;;;-4.89;86.28;100508.47;5278438;28;20437;-74
2021/12/26 07:55:39;;;;;;;12.50;5.68;;;;;;;-4.91;86.28;100511.00;5277828;28;20452;-74
2021/12/26 07:58:10;;;;;;;9.43;5.22;;;;;;;-4.85;86.41;100512.94;5277679;28;20363;-76
2021/12/26 08:00:42;;;;;;;7.17;5.23;;;;;;;-4.85;86.79;100516.31;5277341;28;20031;-73
2021/12/26 08:03:14;;;;;;;11.17;5.27;;;;;;;-4.77;87.06;100530.25;5277573;28;20039;-73
2021/12/26 08:05:45;;;;;;;13.27;5.50;;;;;;;-4.73;87.02;100521.13;5277690;28;20013;-74
2021/12/26 08:08:16;;;;;;;10.47;6.13;;;;;;;-4.62;86.68;100529.19;5277891;28;20181;-74
2021/12/26 08:10:49;;;;;;;8.10;5.93;;;;;;;-4.54;86.38;100535.53;5277050;28;20123;-74
2021/12/26 08:13:20;;;;;;;;;;;;;;;-4.42;86.63;100525.84;5277335;28;20028;-73
2021/12/26 08:15:52;;;;;;;9.18;5.45;;;;;;;-4.26;86.88;100521.44;5277546;28;19916;-73
2021/12/26 08:18:23;;;;;;;14.57;6.37;;;;;;;-4.14;86.59;100518.53;5277421;28;20044;-73
2021/12/26 08:20:54;;;;;;;9.97;5.87;;;;;;;-4.02;86.11;100526.69;5277190;28;20037;-73
2021/12/26 08:23:27;;;;;;;10.17;6.00;;;;;;;-3.91;85.56;100522.03;5276944;28;20441;-74
2021/12/26 08:25:59;;;;;;;8.52;5.03;;;;;;;-3.79;84.97;100525.09;5275275;28;20159;-73
2021/12/26 08:28:31;;;;;;;10.57;5.03;;;;;;;-3.66;84.78;100513.72;5276842;28;20024;-73
2021/12/26 08:31:03;;;;;;;9.27;6.13;;;;;;;-3.52;84.77;100527.91;5276767;28;20269;-74
2021/12/26 08:33:35;;;;;;;13.30;5.93;;;;;;;-3.43;84.32;100519.75;5276408;28;20032;-74
2021/12/26 08:36:07;;;;;;;11.13;6.03;;;;;;;-3.31;84.19;100519.38;5276410;28;20099;-73
2021/12/26 08:38:39;;;;;;;9.73;5.80;;;;;;;-3.21;83.80;100513.78;5275806;28;20107;-73
2021/12/26 08:41:10;;;;;;;10.88;5.82;;;;;;;-3.07;83.53;100522.00;5275590;28;20328;-74
2021/12/26 08:43:43;;;;;;;11.70;5.87;;;;;;;-2.99;82.65;100512.09;5276305;28;20035;-74
2021/12/26 08:46:14;;;;;;;10.55;6.32;;;;;;;-2.88;82.55;100513.34;5276539;28;20098;-73
2021/12/26 08:48:47;;;;;;;9.30;5.47;;;;;;;-2.83;82.29;100508.44;5276593;28;20029;-74
2021/12/26 08:51:19;;;;;;;10.60;6.13;;;;;;;-2.75;82.13;100514.69;5276136;28;20035;-74
2021/12/26 08:53:50;;;;;;;9.63;5.83;;;;;;;-2.71;81.70;100508.00;5276294;28;20024;-75
2021/12/26 08:56:21;;;;;;;12.70;5.57;;;;;;;-2.60;81.97;100520.31;5267837;28;20029;-73
2021/12/26 08:58:53;;;;;;;9.77;5.87;;;;;;;-2.57;81.39;100510.22;5255524;28;20480;-73
2021/12/26 09:01:24;;;;;;;12.27;6.93;;;;;;;-2.50;82.12;100502.78;5255794;28;20377;-74
2021/12/26 09:03:56;;;;;;;14.80;6.57;;;;;;;-2.45;81.33;100519.13;5255219;28;20040;-75
2021/12/26 09:06:27;;;;;;;8.80;5.63;;;;;;;-2.33;81.44;100519.56;5255018;28;20041;-73
2021/12/26 09:08:59;;;;;;;11.63;7.00;;;;;;;-2.28;80.74;100510.38;5255172;28;20083;-73
2021/12/26 09:11:31;;;;;;;11.13;5.97;;;;;;;-2.22;80.68;100510.59;5255457;28;20025;-74
2021/12/26 09:14:02;;;;;;;9.57;5.97;;;;;;;-2.18;80.33;100497.94;5255675;28;20071;-75
2021/12/26 09:16:34;;;;;;;10.73;7.27;;;;;;;-2.08;81.06;100498.28;5254653;28;20445;-73
2021/12/26 09:19:06;;;;;;;12.30;6.97;;;;;;;-2.01;80.72;100509.59;5255268;28;20057;-73
2021/12/26 09:21:37;;;;;;;11.55;6.25;;;;;;;-1.94;80.10;100510.69;5254879;28;20502;-74
2021/12/26 09:24:09;;;;;;;15.50;6.07;;;;;;;-1.93;79.55;100503.06;5255502;28;20035;-73
2021/12/26 09:26:40;;;;;;;10.63;6.77;;;;;;;-1.86;79.95;100512.66;5254579;28;20195;-72
2021/12/26 09:29:12;;;;;;;11.53;6.37;;;;;;;-1.77;79.35;100508.66;5254629;28;20468;-73
2021/12/26 09:31:44;;;;;;;12.50;6.13;;;;;;;-1.76;79.40;100502.75;5254479;28;20500;-73
2021/12/26 09:34:16;;;;;;;11.80;6.32;;;;;;;-1.71;79.01;100514.84;5254900;28;20064;-73
2021/12/26 09:36:49;;;;;;;9.95;7.20;;;;;;;-1.66;79.09;100515.00;5254775;28;20534;-73
2021/12/26 09:39:22;;;;;;;;;;;;;;;-1.50;79.83;100513.78;5255916;28;20423;-74
2021/12/26 09:41:54;;;;;;;;;;;;;;;-1.43;80.08;100509.75;5255260;28;19924;-75
2021/12/26 09:44:25;;;;;;;8.98;5.90;;;;;;;-1.44;79.54;100508.03;5254898;28;19918;-74
2021/12/26 09:46:57;;;;;;;10.20;6.63;;;;;;;-1.37;79.27;100518.50;5254742;28;20036;-75
2021/12/26 09:49:28;;;;;;;14.10;7.47;;;;;;;-1.30;79.65;100515.28;5254110;28;20025;-73
2021/12/26 09:51:59;;;;;;;12.63;8.40;;;;;;;-1.24;79.08;100512.06;5254367;28;20040;-73
2021/12/26 09:54:31;;;;;;;10.97;7.17;;;;;;;-1.19;79.07;100512.19;5254481;28;20461;-73
2021/12/26 09:57:05;;;;;;;9.95;6.38;;;;;;;-1.09;78.86;100506.53;5254633;28;20322;-75
2021/12/26 09:59:37;;;;;;;11.50;6.78;;;;;;;-1.01;78.79;100496.53;5254130;28;20029;-74
2021/12/26 10:02:11;;;;;;;14.57;7.65;;;;;;;-0.90;78.16;100507.97;5261904;28;20373;-74
2021/12/26 10:04:43;;;;;;;12.27;7.20;;;;;;;-0.82;78.33;100493.69;5274178;28;20033;-70
2021/12/26 10:07:17;;;;;;;10.50;7.10;;;;;;;-0.73;77.63;100491.38;5273576;28;20423;-70
2021/12/26 10:09:52;;;;;;;13.10;6.95;;;;;;;-0.73;78.42;100481.13;5273769;28;20105;-70
2021/12/26 10:12:24;;;;;;;10.27;6.32;;;;;;;-0.65;77.86;100477.94;5273761;28;20401;-70
2021/12/26 10:14:56;;;;;;;12.53;6.80;;;;;;;-0.57;78.49;100477.31;5273671;28;20028;-70
2021/12/26 10:17:27;;;;;;;12.23;6.53;;;;;;;-0.59;77.34;100475.56;5273653;28;20044;-70
2021/12/26 10:20:10;;;;;;;11.03;6.73;;;;;;;-0.54;77.93;100471.44;5273634;28;20381;-70
2021/12/26 10:22:41;;;;;;;9.43;6.53;;;;;;;-0.49;77.99;100463.88;5274330;28;20464;-72
2021/12/26 10:25:15;;;;;;;9.53;6.77;;;;;;;-0.43;77.74;100466.59;5274020;28;20134;-70
2021/12/26 10:27:48;;;;;;;14.18;7.22;;;;;;;-0.39;77.80;100459.03;5273710;28;20475;-70
2021/12/26 10:30:24;;;;;;;9.35;7.13;;;;;;;-0.33;77.13;100457.47;5273943;28;20028;-70
2021/12/26 10:32:59;;;;;;;13.82;7.53;;;;;;;-0.32;77.58;100456.63;5273626;28;20037;-71
2021/12/26 10:35:31;;;;;;;16.83;10.48;;;;;;;-0.29;77.86;100460.16;5273974;28;20067;-70
2021/12/26 10:38:03;;;;;;;13.93;7.73;;;;;;;-0.28;77.71;100451.63;5274013;28;20034;-69
2021/12/26 10:40:35;;;;;;;10.93;7.43;;;;;;;-0.22;77.25;100451.78;5273913;28;20029;-70
2021/12/26 10:43:10;;;;;;;14.27;7.95;;;;;;;-0.20;77.81;100447.56;5273733;28;20025;-71
2021/12/26 10:45:42;;;;;;;11.07;7.28;;;;;;;-0.19;77.49;100445.88;5274038;28;20048;-70
2021/12/26 10:48:13;;;;;;;14.93;7.70;;;;;;;-0.19;78.10;100445.88;5273750;28;20505;-71
2021/12/26 10:50:45;;;;;;;11.37;7.80;;;;;;;-0.15;78.32;100442.56;5273981;28;20036;-71
2021/12/26 10:53:17;;;;;;;12.57;6.88;;;;;;;-0.13;77.88;100440.91;5272997;28;20032;-71
2021/12/26 10:55:51;;;;;;;13.37;9.00;;;;;;;-0.05;78.53;100429.16;5274092;28;20028;-71
2021/12/26 10:58:24;;;;;;;16.48;8.52;;;;;;;-0.04;77.78;100436.00;5273272;28;20031;-71
2021/12/26 11:00:58;;;;;;;13.77;8.85;;;;;;;0.01;77.80;100436.13;5273781;28;20060;-70
2021/12/26 11:03:30;;;;;;;14.48;8.27;;;;;;;0.05;77.28;100435.38;5273908;28;20031;-69
2021/12/26 11:06:06;;;;;;;12.82;7.70;;;;;;;0.05;77.64;100419.09;5274647;28;20085;-71
2021/12/26 11:08:42;;;;;;;14.68;8.75;;;;;;;0.08;78.52;100422.63;5277291;28;20068;-70
2021/12/26 11:11:23;;;;;;;13.68;8.98;;;;;;;0.18;78.65;100422.00;5277278;28;20040;-70
2021/12/26 11:14:01;;;;;;;12.38;8.38;;;;;;;0.24;77.48;100428.09;5277388;28;20029;-71
2021/12/26 11:16:39;;;;;;;13.07;8.85;;;;;;;0.24;78.11;100423.88;5276893;28;20024;-70
2021/12/26 11:19:11;;;;;;;15.00;8.95;;;;;;;0.30;77.54;100420.56;5277313;28;20109;-71
2021/12/26 11:21:42;;;;;;;12.30;8.37;;;;;;;0.31;76.99;100430.84;5278082;28;20072;-71
2021/12/26 11:24:14;;;;;;;11.63;7.80;;;;;;;0.29;77.26;100424.84;5277267;28;20029;-70
2021/12/26 11:26:46;;;;;;;14.47;8.07;;;;;;;0.32;77.79;100418.91;5277592;28;20429;-70
2021/12/26 11:29:17;;;;;;;15.27;7.93;;;;;;;0.32;77.78;100417.22;5277925;28;20085;-71
2021/12/26 11:31:50;;;;;;;15.03;8.20;;;;;;;0.34;77.00;100412.97;5277298;28;20132;-71
2021/12/26 11:34:23;;;;;;;15.13;8.57;;;;;;;0.31;77.71;100407.78;5277520;28;20052;-69
2021/12/26 11:36:55;;;;;;;;;;;;;;;0.47;78.09;100408.13;5278022;28;20528;-70
2021/12/26 11:39:28;;;;;;;14.27;9.35;;;;;;;0.34;78.62;100410.41;5277530;28;19973;-69
2021/12/26 11:42:41;;;;;;;13.18;8.43;;;;;;;0.40;79.43;100403.69;5277625;28;20484;-70
2021/12/26 11:45:21;;;;;;;;;;;;;;;0.56;78.48;100416.00;5275858;28;20224;-69
2021/12/26 11:48:39;;;;;;;12.50;8.32;;;;;;;0.46;78.10;100424.34;5275088;28;19917;-69
2021/12/26 11:51:19;;;;;;;14.80;8.25;;;;;;;0.57;78.02;100433.16;5264319;28;20051;-68
2021/12/26 11:54:30;;;;;;;14.40;8.55;;;;;;;0.61;78.49;100426.38;5264531;28;20036;-70
2021/12/26 11:57:16;;;;;;;17.15;9.35;;;;;;;0.60;78.64;100415.25;5288152;28;20103;-70